createdAt,value
2024-01-06T00:00:50.900Z,100.00
2024-01-06T00:02:24.225Z,100.00
2024-01-06T00:03:57.372Z,99.95
2024-01-06T00:05:30.485Z,100.00
2024-01-06T00:07:03.717Z,99.89
2024-01-06T00:08:36.966Z,99.53
2024-01-06T00:10:10.729Z,99.97
2024-01-06T00:11:43.861Z,100.00
2024-01-06T00:13:16.907Z,99.34
2024-01-06T00:14:50.564Z,99.35
2024-01-06T00:16:24.796Z,99.96
2024-01-06T00:17:59.164Z,99.90
2024-01-06T00:19:32.769Z,100.00
2024-01-06T00:21:06.065Z,100.00
2024-01-06T00:22:39.089Z,100.00
2024-01-06T00:24:12.280Z,100.00
2024-01-06T00:25:45.321Z,100.00
2024-01-06T00:27:18.390Z,100.00
2024-01-06T00:28:51.457Z,100.00
2024-01-06T00:30:24.561Z,100.00
2024-01-06T00:31:57.882Z,100.00
2024-01-06T00:33:31.220Z,100.00
2024-01-06T00:35:04.682Z,100.00
2024-01-06T00:36:37.736Z,100.00
2024-01-06T00:38:11.097Z,100.00
2024-01-06T00:39:43.994Z,100.00
2024-01-06T00:41:17.386Z,100.00
2024-01-06T00:42:50.625Z,100.00
2024-01-06T00:44:26.301Z,100.00
2024-01-06T00:46:02.201Z,100.00
2024-01-06T00:47:35.344Z,100.00
2024-01-06T00:49:08.312Z,100.00
2024-01-06T00:50:41.291Z,99.92
2024-01-06T00:52:14.377Z,100.00
2024-01-06T00:53:47.452Z,100.00
2024-01-06T00:55:24.977Z,100.00
2024-01-06T00:56:58.773Z,100.00
2024-01-06T00:58:32.121Z,99.79
2024-01-06T01:00:07.371Z,100.00
2024-01-06T01:01:40.309Z,99.93
2024-01-06T01:03:13.351Z,99.64
2024-01-06T01:04:50.017Z,100.00
2024-01-06T01:06:23.402Z,99.99
2024-01-06T01:07:56.480Z,100.00
2024-01-06T01:09:29.328Z,100.00
2024-01-06T01:11:02.746Z,100.00
2024-01-06T01:12:36.225Z,99.88
2024-01-06T01:14:09.483Z,99.78
2024-01-06T01:15:42.974Z,99.97
2024-01-06T01:17:19.014Z,100.00
2024-01-06T01:18:52.311Z,99.99
2024-01-06T01:20:25.416Z,100.00
2024-01-06T01:21:58.520Z,100.00
2024-01-06T01:23:32.034Z,100.00
2024-01-06T01:25:09.228Z,99.97
2024-01-06T01:26:42.306Z,99.63
2024-01-06T01:28:15.335Z,99.43
2024-01-06T01:29:49.738Z,99.78
2024-01-06T01:31:22.916Z,99.82
2024-01-06T01:32:56.121Z,100.00
2024-01-06T01:34:29.610Z,100.00
2024-01-06T01:36:03.424Z,100.00
2024-01-06T01:37:36.585Z,100.00
2024-01-06T01:39:09.633Z,100.00
2024-01-06T01:40:42.904Z,100.00
2024-01-06T01:42:16.010Z,100.00
2024-01-06T01:43:49.160Z,100.00
2024-01-06T01:45:22.035Z,100.00
2024-01-06T01:46:55.453Z,100.00
2024-01-06T01:48:29.193Z,100.00
2024-01-06T01:50:03.183Z,100.00
2024-01-06T01:51:37.736Z,100.00
2024-01-06T01:53:10.639Z,99.45
2024-01-06T01:54:45.383Z,99.55
2024-01-06T01:56:19.162Z,99.61
2024-01-06T01:57:52.581Z,99.50
2024-01-06T01:59:25.859Z,99.46
2024-01-06T02:00:58.853Z,98.86
2024-01-06T02:02:33.029Z,98.86
2024-01-06T02:04:06.275Z,99.15
2024-01-06T02:05:39.391Z,99.29
2024-01-06T02:07:12.396Z,98.67
2024-01-06T02:08:45.453Z,98.58
2024-01-06T02:10:19.548Z,98.69
2024-01-06T02:11:52.629Z,98.28
2024-01-06T02:13:25.738Z,97.90
2024-01-06T02:15:01.396Z,98.22
2024-01-06T02:16:38.141Z,98.45
2024-01-06T02:18:11.260Z,98.85
2024-01-06T02:19:44.532Z,98.39
2024-01-06T02:21:19.242Z,98.36
2024-01-06T02:22:52.391Z,98.35
2024-01-06T02:24:25.369Z,98.53
2024-01-06T02:25:59.167Z,98.54
2024-01-06T02:27:33.551Z,98.65
2024-01-06T02:29:06.522Z,98.69
2024-01-06T02:30:40.041Z,98.34
2024-01-06T02:32:13.347Z,98.31
2024-01-06T02:33:46.906Z,98.72
2024-01-06T02:35:20.562Z,98.75
2024-01-06T02:36:53.578Z,98.55
2024-01-06T02:38:26.618Z,98.72
2024-01-06T02:39:59.610Z,98.50
2024-01-06T02:41:32.661Z,99.11
2024-01-06T02:43:06.469Z,98.82
2024-01-06T02:44:39.525Z,98.84
2024-01-06T02:46:15.509Z,98.98
2024-01-06T02:47:51.595Z,99.25
2024-01-06T02:49:24.748Z,99.04
2024-01-06T02:51:00.836Z,99.91
2024-01-06T02:52:34.228Z,100.00
2024-01-06T02:54:07.357Z,99.79
2024-01-06T02:55:41.174Z,99.55
2024-01-06T02:57:15.069Z,99.64
2024-01-06T02:58:48.027Z,99.58
2024-01-06T03:00:21.156Z,99.47
2024-01-06T03:01:54.185Z,99.39
2024-01-06T03:03:27.474Z,99.25
2024-01-06T03:05:00.564Z,98.89
2024-01-06T03:06:34.875Z,99.13
2024-01-06T03:08:08.682Z,99.60
2024-01-06T03:09:41.957Z,98.84
2024-01-06T03:11:14.993Z,99.19
2024-01-06T03:12:51.064Z,98.97
2024-01-06T03:14:24.125Z,98.69
2024-01-06T03:15:57.234Z,98.85
2024-01-06T03:17:30.623Z,99.08
2024-01-06T03:19:04.146Z,98.81
2024-01-06T03:20:37.761Z,99.13
2024-01-06T03:22:10.713Z,99.13
2024-01-06T03:23:44.036Z,98.31
2024-01-06T03:25:16.921Z,98.75
2024-01-06T03:26:50.409Z,98.85
2024-01-06T03:28:23.512Z,99.38
2024-01-06T03:29:56.483Z,99.02
2024-01-06T03:31:29.629Z,98.92
2024-01-06T03:33:02.800Z,98.81
2024-01-06T03:34:35.983Z,98.81
2024-01-06T03:36:09.472Z,98.59
2024-01-06T03:37:42.892Z,98.78
2024-01-06T03:39:15.982Z,98.89
2024-01-06T03:40:49.029Z,98.48
2024-01-06T03:42:22.440Z,98.21
2024-01-06T03:43:55.710Z,98.64
2024-01-06T03:45:29.617Z,98.94
2024-01-06T03:47:02.635Z,98.97
2024-01-06T03:48:36.564Z,98.69
2024-01-06T03:50:10.348Z,98.47
2024-01-06T03:51:43.674Z,98.19
2024-01-06T03:53:17.049Z,98.61
2024-01-06T03:54:50.041Z,98.86
2024-01-06T03:56:23.047Z,98.31
2024-01-06T03:57:56.072Z,97.76
2024-01-06T03:59:29.125Z,97.99
2024-01-06T04:01:02.253Z,97.49
2024-01-06T04:02:35.543Z,97.18
2024-01-06T04:04:08.966Z,96.90
2024-01-06T04:05:42.451Z,96.97
2024-01-06T04:07:15.702Z,96.98
2024-01-06T04:08:49.018Z,96.31
2024-01-06T04:10:22.390Z,96.74
2024-01-06T04:11:55.752Z,96.78
2024-01-06T04:13:28.839Z,96.80
2024-01-06T04:15:01.838Z,96.83
2024-01-06T04:16:36.662Z,96.21
2024-01-06T04:18:11.163Z,95.54
2024-01-06T04:19:44.121Z,95.59
2024-01-06T04:21:17.324Z,95.60
2024-01-06T04:22:51.022Z,94.75
2024-01-06T04:24:24.448Z,94.50
2024-01-06T04:25:57.542Z,94.43
2024-01-06T04:27:35.747Z,94.77
2024-01-06T04:29:14.197Z,95.23
2024-01-06T04:30:47.440Z,95.28
2024-01-06T04:32:20.942Z,95.23
2024-01-06T04:33:54.486Z,95.23
2024-01-06T04:35:27.668Z,94.84
2024-01-06T04:37:00.756Z,95.26
2024-01-06T04:38:33.727Z,95.25
2024-01-06T04:40:10.536Z,95.03
2024-01-06T04:41:43.774Z,95.37
2024-01-06T04:43:17.038Z,95.29
2024-01-06T04:44:53.759Z,95.21
2024-01-06T04:46:26.624Z,95.54
2024-01-06T04:47:59.940Z,95.65
2024-01-06T04:49:33.078Z,94.74
2024-01-06T04:51:07.177Z,94.79
2024-01-06T04:52:40.872Z,94.41
2024-01-06T04:54:13.876Z,93.81
2024-01-06T04:55:46.732Z,93.88
2024-01-06T04:57:21.062Z,94.04
2024-01-06T04:58:53.827Z,93.90
2024-01-06T05:00:27.635Z,93.23
2024-01-06T05:02:00.731Z,94.07
2024-01-06T05:03:34.038Z,93.68
2024-01-06T05:05:07.210Z,94.48
2024-01-06T05:06:40.109Z,94.56
2024-01-06T05:08:13.163Z,94.54
2024-01-06T05:09:46.271Z,94.25
2024-01-06T05:11:19.543Z,93.88
2024-01-06T05:12:52.999Z,94.29
2024-01-06T05:14:25.936Z,93.93
2024-01-06T05:16:20.903Z,94.56
2024-01-06T05:17:54.393Z,94.43
2024-01-06T05:19:29.547Z,93.96
2024-01-06T05:21:04.656Z,94.21
2024-01-06T05:22:38.160Z,94.29
2024-01-06T05:36:12.462Z,93.34
2024-01-06T05:37:49.355Z,93.65
2024-01-06T05:39:35.400Z,94.01
2024-01-06T05:41:21.922Z,93.59
2024-01-06T06:07:31.958Z,88.51
2024-01-06T06:39:58.428Z,85.27
2024-01-06T07:01:43.863Z,84.66
2024-01-06T07:03:37.377Z,84.34
2024-01-06T07:10:45.672Z,83.55
2024-01-06T07:12:18.723Z,83.66
2024-01-06T07:13:52.331Z,83.08
2024-01-06T07:15:25.802Z,82.88
2024-01-06T07:16:59.454Z,82.85
2024-01-06T07:18:32.676Z,82.77
2024-01-06T07:20:08.622Z,82.94
2024-01-06T07:21:42.368Z,83.57
2024-01-06T07:23:15.933Z,82.70
2024-01-06T07:24:49.815Z,82.77
2024-01-06T07:26:23.375Z,82.38
2024-01-06T07:31:53.873Z,84.11
2024-01-06T08:09:01.720Z,87.02
2024-01-06T09:46:16.420Z,100.00
2024-01-06T09:47:53.535Z,100.00
2024-01-06T09:49:29.948Z,100.00
2024-01-06T09:51:05.212Z,100.00
2024-01-06T09:52:45.808Z,100.00
2024-01-06T09:54:26.158Z,100.00
2024-01-06T09:55:59.452Z,100.00
2024-01-06T09:57:32.243Z,100.00
2024-01-06T09:59:05.726Z,100.00
2024-01-06T10:00:38.971Z,100.00
2024-01-06T10:02:15.681Z,100.00
2024-01-06T10:03:49.022Z,100.00
2024-01-06T10:05:22.272Z,100.00
2024-01-06T10:06:55.231Z,100.00
2024-01-06T10:08:28.215Z,100.00
2024-01-06T10:10:01.333Z,100.00
2024-01-06T10:11:37.283Z,100.00
2024-01-06T10:13:10.095Z,100.00
2024-01-06T10:14:42.829Z,100.00
2024-01-06T10:16:15.560Z,100.00
2024-01-06T10:17:48.679Z,100.00
2024-01-06T10:19:22.538Z,100.00
2024-01-06T10:20:55.634Z,100.00
2024-01-06T10:22:28.319Z,100.00
2024-01-06T10:24:01.870Z,100.00
2024-01-06T10:25:34.628Z,100.00
2024-01-06T10:27:08.006Z,100.00
2024-01-06T10:28:40.865Z,100.00
2024-01-06T10:30:15.928Z,100.00
2024-01-06T10:31:51.555Z,100.00
2024-01-06T10:33:28.014Z,100.00
2024-01-06T10:35:05.102Z,100.00
2024-01-06T10:36:38.082Z,100.00
2024-01-06T10:38:12.877Z,100.00
2024-01-06T10:39:46.087Z,100.00
2024-01-06T10:41:19.140Z,100.00
2024-01-06T10:42:53.938Z,100.00
2024-01-06T10:44:29.282Z,100.00
2024-01-06T10:46:05.943Z,100.00
2024-01-06T10:47:40.082Z,100.00
2024-01-06T10:49:14.287Z,100.00
2024-01-06T10:50:48.769Z,100.00
2024-01-06T10:52:24.249Z,100.00
2024-01-06T10:53:59.188Z,100.00
2024-01-06T10:55:33.418Z,100.00
2024-01-06T10:57:07.786Z,100.00
2024-01-06T10:58:53.643Z,100.00
2024-01-06T11:00:26.456Z,100.00
2024-01-06T11:02:00.394Z,100.00
2024-01-06T11:03:33.570Z,100.00
2024-01-06T11:05:09.350Z,100.00
2024-01-06T11:06:42.431Z,100.00
2024-01-06T11:08:18.757Z,100.00
2024-01-06T11:09:58.260Z,100.00
2024-01-06T11:11:32.069Z,100.00
2024-01-06T11:13:25.240Z,100.00
2024-01-06T11:14:58.168Z,100.00
2024-01-06T11:16:38.386Z,100.00
2024-01-06T11:18:33.122Z,100.00
2024-01-06T11:20:10.117Z,100.00
2024-01-06T11:21:42.967Z,100.00
2024-01-06T11:23:23.675Z,100.00
2024-01-06T11:24:58.864Z,100.00
2024-01-06T11:26:31.825Z,100.00
2024-01-06T11:28:10.215Z,100.00
2024-01-06T11:29:45.500Z,100.00
2024-01-06T11:31:18.426Z,100.00
2024-01-06T11:32:54.900Z,100.00
2024-01-06T11:34:27.948Z,100.00
2024-01-06T11:36:03.308Z,100.00
2024-01-06T11:37:39.141Z,100.00
2024-01-06T11:39:40.789Z,100.00
2024-01-06T11:41:51.928Z,100.00
2024-01-06T11:43:28.590Z,100.00
2024-01-06T11:45:07.098Z,100.00
2024-01-06T11:46:42.853Z,100.00
2024-01-06T11:48:17.981Z,100.00
2024-01-06T11:49:57.341Z,100.00
2024-01-06T11:51:30.160Z,100.00
2024-01-06T11:53:04.115Z,100.00
2024-01-06T11:54:37.545Z,100.00
2024-01-06T11:56:11.170Z,100.00
2024-01-06T11:57:44.729Z,100.00
2024-01-06T11:59:17.565Z,100.00
2024-01-06T12:00:59.533Z,100.00
2024-01-06T12:02:32.443Z,100.00
2024-01-06T12:04:06.889Z,100.00
2024-01-06T12:05:40.094Z,100.00
2024-01-06T12:07:15.946Z,100.00
2024-01-06T12:08:48.889Z,100.00
2024-01-06T12:10:23.312Z,100.00
2024-01-06T12:12:10.592Z,100.00
2024-01-06T12:13:43.332Z,100.00
2024-01-06T12:15:16.171Z,100.00
2024-01-06T12:16:48.955Z,100.00
2024-01-06T12:18:21.983Z,100.00
2024-01-06T12:19:54.864Z,100.00
2024-01-06T12:21:29.433Z,100.00
2024-01-06T12:23:03.167Z,100.00
2024-01-06T12:24:36.206Z,100.00
2024-01-06T12:26:08.952Z,100.00
2024-01-06T12:27:44.926Z,100.00
2024-01-06T12:29:18.826Z,100.00
2024-01-06T12:30:51.776Z,100.00
2024-01-06T12:32:24.973Z,100.00
2024-01-06T12:33:58.041Z,100.00
2024-01-06T12:35:30.876Z,100.00
2024-01-06T12:37:04.789Z,100.00
2024-01-06T12:38:38.510Z,100.00
2024-01-06T12:40:12.023Z,100.00
2024-01-06T12:41:45.576Z,100.00
2024-01-06T12:43:18.486Z,100.00
2024-01-06T12:44:51.860Z,100.00
2024-01-06T12:46:24.685Z,100.00
2024-01-06T12:47:57.473Z,100.00
2024-01-06T12:49:30.728Z,100.00
2024-01-06T12:51:05.122Z,100.00
2024-01-06T12:52:39.620Z,100.00
2024-01-06T12:54:12.417Z,100.00
2024-01-06T12:55:45.826Z,100.00
2024-01-06T12:57:18.633Z,100.00
2024-01-06T12:58:51.848Z,100.00
2024-01-06T13:00:24.636Z,100.00
2024-01-06T13:01:58.610Z,100.00
2024-01-06T13:03:31.450Z,100.00
2024-01-06T13:05:05.737Z,100.00
2024-01-06T13:06:38.621Z,100.00
2024-01-06T13:08:11.605Z,100.00
2024-01-06T13:09:44.507Z,100.00
2024-01-06T13:11:17.411Z,100.00
2024-01-06T13:12:54.097Z,100.00
2024-01-06T13:14:27.232Z,100.00
2024-01-06T13:16:00.125Z,100.00
2024-01-06T13:17:32.968Z,100.00
2024-01-06T13:19:06.197Z,100.00
2024-01-06T13:20:42.106Z,100.00
2024-01-06T13:22:16.336Z,100.00
2024-01-06T13:23:49.488Z,100.00
2024-01-06T13:25:24.197Z,100.00
2024-01-06T13:26:57.238Z,100.00
2024-01-06T13:28:30.029Z,100.00
2024-01-06T13:30:02.800Z,100.00
2024-01-06T13:31:36.303Z,100.00
2024-01-06T13:33:12.007Z,100.00
2024-01-06T13:34:45.083Z,100.00
2024-01-06T13:36:19.372Z,100.00
2024-01-06T13:37:53.057Z,100.00
2024-01-06T13:39:26.077Z,100.00
2024-01-06T13:40:59.142Z,100.00
2024-01-06T13:42:31.902Z,100.00
2024-01-06T13:44:04.796Z,100.00
2024-01-06T13:45:37.972Z,100.00
2024-01-06T13:47:10.920Z,100.00
2024-01-06T13:48:43.894Z,100.00
2024-01-06T13:50:20.416Z,100.00
2024-01-06T13:51:53.578Z,100.00
2024-01-06T13:53:26.911Z,100.00
2024-01-06T13:54:59.951Z,100.00
2024-01-06T13:56:32.937Z,100.00
2024-01-06T13:58:05.868Z,100.00
2024-01-06T13:59:43.763Z,100.00
2024-01-06T14:01:16.980Z,100.00
2024-01-06T14:02:49.908Z,100.00
2024-01-06T14:04:25.228Z,100.00
2024-01-06T14:05:58.306Z,100.00
2024-01-06T14:07:31.464Z,100.00
2024-01-06T14:09:04.547Z,100.00
2024-01-06T14:10:39.357Z,100.00
2024-01-06T14:12:12.545Z,100.00
2024-01-06T14:13:49.892Z,100.00
2024-01-06T14:15:22.625Z,100.00
2024-01-06T14:16:55.715Z,100.00
2024-01-06T14:18:29.202Z,100.00
2024-01-06T14:20:03.519Z,100.00
2024-01-06T14:21:36.371Z,100.00
2024-01-06T14:23:11.645Z,100.00
2024-01-06T14:24:44.457Z,100.00
2024-01-06T14:26:21.663Z,100.00
2024-01-06T14:27:54.609Z,100.00
2024-01-06T14:29:27.481Z,100.00
2024-01-06T14:31:00.676Z,100.00
2024-01-06T14:32:34.568Z,100.00
2024-01-06T14:34:07.530Z,100.00
2024-01-06T14:35:40.409Z,100.00
2024-01-06T14:37:13.325Z,100.00
2024-01-06T14:38:46.616Z,100.00
2024-01-06T14:40:19.417Z,100.00
2024-01-06T14:41:53.396Z,100.00
2024-01-06T14:43:26.197Z,100.00
2024-01-06T14:44:59.293Z,100.00
2024-01-06T14:46:33.417Z,100.00
2024-01-06T14:48:06.873Z,100.00
2024-01-06T14:49:39.772Z,100.00
2024-01-06T14:51:12.716Z,100.00
2024-01-06T14:52:45.635Z,100.00
2024-01-06T14:54:18.528Z,100.00
2024-01-06T14:55:51.310Z,100.00
2024-01-06T14:57:24.023Z,100.00
2024-01-06T14:58:57.513Z,100.00
2024-01-06T15:00:32.208Z,100.00
2024-01-06T15:02:05.557Z,100.00
2024-01-06T15:03:38.563Z,100.00
2024-01-06T15:05:11.731Z,100.00
2024-01-06T15:06:45.361Z,100.00
2024-01-06T15:08:18.166Z,100.00
2024-01-06T15:09:51.120Z,100.00
2024-01-06T15:11:23.958Z,100.00
2024-01-06T15:12:57.152Z,100.00
2024-01-06T15:14:30.049Z,100.00
2024-01-06T15:16:02.809Z,100.00
2024-01-06T15:17:35.908Z,100.00
2024-01-06T15:19:09.482Z,100.00
2024-01-06T15:20:42.549Z,100.00
2024-01-06T15:22:15.288Z,100.00
2024-01-06T15:23:48.083Z,100.00
2024-01-06T15:25:21.223Z,100.00
2024-01-06T15:26:54.061Z,100.00
2024-01-06T15:28:27.701Z,100.00
2024-01-06T15:30:08.379Z,100.00
2024-01-06T15:31:41.393Z,100.00
2024-01-06T15:33:16.092Z,100.00
2024-01-06T15:34:48.998Z,100.00
2024-01-06T15:36:22.236Z,100.00
2024-01-06T15:37:55.426Z,100.00
2024-01-06T15:39:28.309Z,100.00
2024-01-06T15:41:03.501Z,100.00
2024-01-06T15:42:39.438Z,100.00
2024-01-06T15:44:12.344Z,100.00
2024-01-06T15:45:45.204Z,100.00
2024-01-06T15:47:18.371Z,100.00
2024-01-06T15:48:51.231Z,100.00
2024-01-06T15:50:23.986Z,100.00
2024-01-06T15:51:58.637Z,100.00
2024-01-06T15:53:32.333Z,100.00
2024-01-06T15:55:06.162Z,100.00
2024-01-06T15:56:39.152Z,100.00
2024-01-06T15:58:11.983Z,100.00
2024-01-06T15:59:45.677Z,100.00
2024-01-06T16:01:18.939Z,100.00
2024-01-06T16:02:53.182Z,100.00
2024-01-06T16:04:26.938Z,100.00
2024-01-06T16:05:59.882Z,100.00
2024-01-06T16:07:37.554Z,100.00
2024-01-06T16:09:12.198Z,100.00
2024-01-06T16:10:45.094Z,100.00
2024-01-06T16:12:19.203Z,100.00
2024-01-06T16:13:52.041Z,100.00
2024-01-06T16:15:25.560Z,100.00
2024-01-06T16:17:01.324Z,100.00
2024-01-06T16:18:34.216Z,100.00
2024-01-06T16:20:08.296Z,100.00
2024-01-06T16:21:41.439Z,100.00
2024-01-06T16:23:17.307Z,100.00
2024-01-06T16:24:50.139Z,100.00
2024-01-06T16:26:23.182Z,100.00
2024-01-06T16:27:58.992Z,100.00
2024-01-06T16:29:32.458Z,100.00
2024-01-06T16:31:05.739Z,100.00
2024-01-06T16:32:38.721Z,100.00
2024-01-06T16:34:11.690Z,100.00
2024-01-06T16:35:47.331Z,100.00
2024-01-06T16:37:20.513Z,100.00
2024-01-06T16:38:53.239Z,100.00
2024-01-06T16:40:26.151Z,100.00
2024-01-06T16:41:59.111Z,100.00
2024-01-06T16:43:38.784Z,100.00
2024-01-06T16:45:11.596Z,100.00
2024-01-06T16:46:44.453Z,100.00
2024-01-06T16:48:17.636Z,100.00
2024-01-06T16:49:50.685Z,100.00
2024-01-06T16:51:23.588Z,100.00
2024-01-06T16:52:56.455Z,100.00
2024-01-06T16:54:29.407Z,100.00
2024-01-06T16:56:06.657Z,100.00
2024-01-06T16:57:39.594Z,100.00
2024-01-06T16:59:12.714Z,100.00
2024-01-06T17:00:45.959Z,100.00
2024-01-06T17:02:18.737Z,100.00
2024-01-06T17:03:52.034Z,100.00
2024-01-06T17:05:25.355Z,100.00
2024-01-06T17:07:01.052Z,100.00
2024-01-06T17:08:34.108Z,100.00
2024-01-06T17:10:07.612Z,100.00
2024-01-06T17:11:40.433Z,100.00
2024-01-06T17:13:13.202Z,100.00
2024-01-06T17:14:46.160Z,100.00
2024-01-06T17:16:18.952Z,100.00
2024-01-06T17:17:52.676Z,100.00
2024-01-06T17:19:25.791Z,100.00
2024-01-06T17:20:58.721Z,100.00
2024-01-06T17:22:31.649Z,100.00
2024-01-06T17:24:04.822Z,100.00
2024-01-06T17:25:37.630Z,100.00
2024-01-06T17:27:11.428Z,100.00
2024-01-06T17:28:44.167Z,100.00
2024-01-06T17:30:17.519Z,100.00
2024-01-06T17:31:50.486Z,100.00
2024-01-06T17:33:23.488Z,100.00
2024-01-06T17:34:56.600Z,100.00
2024-01-06T17:36:29.979Z,100.00
2024-01-06T17:38:02.726Z,100.00
2024-01-06T17:39:35.765Z,100.00
2024-01-06T17:41:09.328Z,100.00
2024-01-06T17:42:42.089Z,100.00
2024-01-06T17:44:14.757Z,100.00
2024-01-06T17:45:47.537Z,100.00
2024-01-06T17:47:20.824Z,100.00
2024-01-06T17:48:54.111Z,100.00
2024-01-06T17:50:27.193Z,100.00
2024-01-06T17:52:00.094Z,100.00
2024-01-06T17:53:32.860Z,100.00
2024-01-06T17:55:07.404Z,100.00
2024-01-06T17:56:40.411Z,100.00
2024-01-06T17:58:13.873Z,100.00
2024-01-06T17:59:46.971Z,100.00
2024-01-06T18:01:19.964Z,100.00
2024-01-06T18:02:52.804Z,100.00
2024-01-06T18:04:26.427Z,100.00
2024-01-06T18:05:59.365Z,100.00
2024-01-06T18:07:34.208Z,100.00
2024-01-06T18:09:07.515Z,100.00
2024-01-06T18:10:40.518Z,100.00
2024-01-06T18:12:13.498Z,100.00
2024-01-06T18:13:46.230Z,100.00
2024-01-06T18:15:18.927Z,100.00
2024-01-06T18:16:51.730Z,100.00
2024-01-06T18:18:24.616Z,100.00
2024-01-06T18:19:57.419Z,100.00
2024-01-06T18:21:30.866Z,100.00
2024-01-06T18:23:03.839Z,100.00
2024-01-06T18:24:37.837Z,100.00
2024-01-06T18:26:10.672Z,100.00
2024-01-06T18:27:43.935Z,100.00
2024-01-06T18:29:19.397Z,100.00
2024-01-06T18:30:54.889Z,100.00
2024-01-06T18:32:28.604Z,100.00
2024-01-06T18:34:01.483Z,100.00
2024-01-06T18:35:34.343Z,100.00
2024-01-06T18:37:07.716Z,100.00
2024-01-06T18:38:40.494Z,100.00
2024-01-06T18:40:13.573Z,100.00
2024-01-06T18:41:46.483Z,100.00
2024-01-06T18:43:19.334Z,100.00
2024-01-06T18:44:52.734Z,100.00
2024-01-06T18:46:25.629Z,100.00
2024-01-06T18:47:59.219Z,100.00
2024-01-06T18:49:32.446Z,100.00
2024-01-06T18:51:05.339Z,100.00
2024-01-06T18:52:40.102Z,100.00
2024-01-06T18:54:19.624Z,100.00
2024-01-06T18:55:59.726Z,100.00
2024-01-06T18:57:34.359Z,100.00
2024-01-06T18:59:09.226Z,100.00
2024-01-06T19:00:42.560Z,100.00
2024-01-06T19:02:15.992Z,100.00
2024-01-06T19:03:48.869Z,100.00
2024-01-06T19:05:22.221Z,100.00
2024-01-06T19:06:55.140Z,100.00
2024-01-06T19:08:28.158Z,100.00
2024-01-06T19:10:01.304Z,100.00
2024-01-06T19:11:34.236Z,100.00
2024-01-06T19:13:10.000Z,100.00
2024-01-06T19:14:42.845Z,100.00
2024-01-06T19:16:15.784Z,100.00
2024-01-06T19:17:49.283Z,100.00
2024-01-06T19:19:22.816Z,100.00
2024-01-06T19:20:55.819Z,100.00
2024-01-06T19:22:29.181Z,100.00
2024-01-06T19:24:02.185Z,100.00
2024-01-06T19:25:35.408Z,100.00
2024-01-06T19:27:08.155Z,100.00
2024-01-06T19:28:41.054Z,100.00
2024-01-06T19:30:16.067Z,100.00
2024-01-06T19:31:49.022Z,100.00
2024-01-06T19:33:21.833Z,100.00
2024-01-06T19:34:59.732Z,100.00
2024-01-06T19:36:33.051Z,100.00
2024-01-06T19:38:10.114Z,100.00
2024-01-06T19:39:44.596Z,100.00
2024-01-06T19:41:17.383Z,100.00
2024-01-06T19:42:53.519Z,100.00
2024-01-06T19:44:26.414Z,100.00
2024-01-06T19:46:03.623Z,100.00
2024-01-06T19:47:36.587Z,100.00
2024-01-06T19:49:09.546Z,100.00
2024-01-06T19:50:42.533Z,100.00
2024-01-06T19:52:16.122Z,100.00
2024-01-06T19:53:49.690Z,100.00
2024-01-06T19:55:22.375Z,100.00
2024-01-06T19:56:55.265Z,100.00
2024-01-06T19:58:28.016Z,100.00
2024-01-06T20:00:00.823Z,100.00
2024-01-06T20:01:38.884Z,100.00
2024-01-06T20:03:12.677Z,100.00
2024-01-06T20:04:45.763Z,100.00
2024-01-06T20:06:18.753Z,100.00
2024-01-06T20:07:51.995Z,100.00
2024-01-06T20:09:24.856Z,100.00
2024-01-06T20:11:03.947Z,100.00
2024-01-06T20:12:36.707Z,100.00
2024-01-06T20:14:09.415Z,100.00
2024-01-06T20:15:42.286Z,100.00
2024-01-06T20:17:15.105Z,100.00
2024-01-06T20:18:47.884Z,100.00
2024-01-06T20:20:20.810Z,100.00
2024-01-06T20:21:53.514Z,100.00
2024-01-06T20:23:26.237Z,100.00
2024-01-06T20:24:59.266Z,100.00
2024-01-06T20:26:32.413Z,100.00
2024-01-06T20:28:05.576Z,100.00
2024-01-06T20:29:38.373Z,100.00
2024-01-06T20:31:12.607Z,100.00
2024-01-06T20:32:53.075Z,100.00
2024-01-06T20:34:26.981Z,100.00
2024-01-06T20:36:05.411Z,100.00
2024-01-06T20:37:38.214Z,100.00
2024-01-06T20:39:11.571Z,100.00
2024-01-06T20:40:44.361Z,100.00
2024-01-06T20:42:17.168Z,100.00
2024-01-06T20:43:49.927Z,100.00
2024-01-06T20:45:22.911Z,100.00
2024-01-06T20:46:55.827Z,100.00
2024-01-06T20:48:28.776Z,100.00
2024-01-06T20:50:01.664Z,100.00
2024-01-06T20:51:36.369Z,100.00
2024-01-06T20:53:09.842Z,100.00
2024-01-06T20:54:42.606Z,100.00
2024-01-06T20:56:16.386Z,100.00
2024-01-06T20:57:49.763Z,100.00
2024-01-06T20:59:22.610Z,100.00
2024-01-06T21:00:56.109Z,100.00
2024-01-06T21:02:28.920Z,100.00
2024-01-06T21:04:01.796Z,100.00
2024-01-06T21:05:34.661Z,100.00
2024-01-06T21:07:07.340Z,100.00
2024-01-06T21:08:40.172Z,100.00
2024-01-06T21:10:12.988Z,100.00
2024-01-06T21:11:45.761Z,100.00
2024-01-06T21:13:18.629Z,100.00
2024-01-06T21:14:53.352Z,100.00
2024-01-06T21:16:26.022Z,100.00
2024-01-06T21:17:58.720Z,100.00
2024-01-06T21:19:32.259Z,100.00
2024-01-06T21:21:06.432Z,100.00
2024-01-06T21:22:39.228Z,100.00
2024-01-06T21:24:13.118Z,100.00
2024-01-06T21:25:45.889Z,100.00
2024-01-06T21:27:18.604Z,100.00
2024-01-06T21:28:51.598Z,100.00
2024-01-06T21:30:24.942Z,100.00
2024-01-06T21:31:57.764Z,100.00
2024-01-06T21:33:30.742Z,100.00
2024-01-06T21:35:05.434Z,100.00
2024-01-06T21:36:42.027Z,100.00
2024-01-06T21:38:15.195Z,100.00
2024-01-06T21:39:47.967Z,100.00
2024-01-06T21:41:22.061Z,100.00
2024-01-06T21:42:55.898Z,100.00
2024-01-06T21:44:28.663Z,100.00
2024-01-06T21:46:01.408Z,100.00
2024-01-06T21:47:34.360Z,100.00
2024-01-06T21:49:07.443Z,100.00
2024-01-06T21:50:40.308Z,100.00
2024-01-06T21:52:13.753Z,100.00
2024-01-06T21:53:47.138Z,100.00
2024-01-06T21:55:19.821Z,100.00
2024-01-06T21:56:52.577Z,100.00
2024-01-06T21:58:25.546Z,100.00
2024-01-06T21:59:58.270Z,100.00
2024-01-06T22:01:31.053Z,100.00
2024-01-06T22:03:05.785Z,100.00
2024-01-06T22:04:42.276Z,100.00
2024-01-06T22:06:15.078Z,100.00
2024-01-06T22:07:47.881Z,100.00
2024-01-06T22:09:20.737Z,100.00
2024-01-06T22:10:53.415Z,100.00
2024-01-06T22:12:26.934Z,100.00
2024-01-06T22:13:59.727Z,100.00
2024-01-06T22:15:35.994Z,100.00
2024-01-06T22:17:09.433Z,100.00
2024-01-06T22:18:42.251Z,100.00
2024-01-06T22:20:15.106Z,100.00
2024-01-06T22:21:50.291Z,100.00
2024-01-06T22:23:23.435Z,100.00
2024-01-06T22:24:56.188Z,100.00
2024-01-06T22:26:30.344Z,100.00
2024-01-06T22:28:03.476Z,100.00
2024-01-06T22:29:36.359Z,100.00
2024-01-06T22:31:09.201Z,100.00
2024-01-06T22:32:42.098Z,100.00
2024-01-06T22:34:15.310Z,100.00
2024-01-06T22:35:48.058Z,100.00
2024-01-06T22:37:21.111Z,100.00
2024-01-06T22:38:56.118Z,100.00
2024-01-06T22:40:29.250Z,100.00
2024-01-06T22:42:03.031Z,100.00
2024-01-06T22:43:36.166Z,100.00
2024-01-06T22:45:09.221Z,100.00
2024-01-06T22:46:42.377Z,100.00
2024-01-06T22:48:15.241Z,100.00
2024-01-06T22:49:47.915Z,100.00
2024-01-06T22:51:20.776Z,100.00
2024-01-06T22:52:53.671Z,100.00
2024-01-06T22:54:26.530Z,100.00
2024-01-06T22:55:59.331Z,100.00
2024-01-06T22:57:32.147Z,100.00
2024-01-06T22:59:04.883Z,100.00
2024-01-06T23:00:38.887Z,100.00
2024-01-06T23:02:11.776Z,100.00
2024-01-06T23:03:45.230Z,100.00
2024-01-06T23:05:18.110Z,100.00
2024-01-06T23:06:50.941Z,100.00
2024-01-06T23:08:23.770Z,100.00
2024-01-06T23:09:56.510Z,100.00
2024-01-06T23:11:29.204Z,100.00
2024-01-06T23:13:02.047Z,100.00
2024-01-06T23:14:34.841Z,100.00
2024-01-06T23:16:08.158Z,100.00
2024-01-06T23:17:40.956Z,100.00
2024-01-06T23:19:13.858Z,100.00
2024-01-06T23:20:46.705Z,100.00
2024-01-06T23:22:19.553Z,100.00
2024-01-06T23:23:52.922Z,100.00
2024-01-06T23:25:25.922Z,100.00
2024-01-06T23:26:58.637Z,100.00
2024-01-06T23:28:31.325Z,100.00
2024-01-06T23:30:04.656Z,100.00